PWSweather.com
Personal Weather Stations
Station Observations
KOHAVON11
Long Road Station, Avon, OH 44011

Long Road StationAvon, OH 44011

Lat: 41.437, Lon: -82.0477

Elevation: 686

Station Type: Davis Vantage Pro2

http://www.avon-weather.com

High Low Average
Temperature 69.5°F20.8°F 45.8°F7.7°F 57.2°F14.0°F
Dew Point 46.0°F7.8°F 38.1°F3.4°F 41.0°F5.0°F
Winds 14.0 mph SW22.5 mph SW Calm Calm 4.0 mph 6.4 mph
Wind Gusts 17.0 mph27.4 mph -- 7.9 mph12.7 mph
Humidity 79% 38% 57%
Pressure 30.30 in1026.10 in 30.13 in1020.30 in -
Precipitation 0.00 in0.00 in - -
Hour Temp Dew Point Humidity Winds Wind Gusts Pressure Precip Precip Rate Daily Precip Total
12:03 AM 52.3°F11.3°C 39.0°F3.9°C 61% 4.0 mph S6.4 kmh S 8.0 mph12.9 kmh 30.24 in1024.0 mb 0.00 in0.0 mm 0.00 in0.0 mm 0.00 in0.0 mm
12:08 AM 52.2°F11.2°C 38.9°F3.8°C 61% 4.0 mph S6.4 kmh S 8.0 mph12.9 kmh 30.24 in1024.0 mb 0.00 in0.0 mm 0.00 in0.0 mm 0.00 in0.0 mm
12:13 AM 52.2°F11.2°C 38.9°F3.8°C 61% 3.0 mph SW4.8 kmh SW 7.0 mph11.3 kmh 30.24 in1024.0 mb 0.00 in0.0 mm 0.00 in0.0 mm 0.00 in0.0 mm
12:18 AM 52.1°F11.2°C 39.2°F4.0°C 62% 4.0 mph S6.4 kmh S 7.0 mph11.3 kmh 30.24 in1024.0 mb 0.00 in0.0 mm 0.00 in0.0 mm 0.00 in0.0 mm
12:23 AM 52.0°F11.1°C 39.1°F3.9°C 62% 4.0 mph SSW6.4 kmh SSW 7.0 mph11.3 kmh 30.24 in1024.0 mb 0.00 in0.0 mm 0.00 in0.0 mm 0.00 in0.0 mm
12:28 AM 51.9°F11.1°C 39.0°F3.9°C 62% 5.0 mph SW8.0 kmh SW 8.0 mph12.9 kmh 30.24 in1024.0 mb 0.00 in0.0 mm 0.00 in0.0 mm 0.00 in0.0 mm
12:33 AM 51.8°F11.0°C 38.9°F3.8°C 62% 4.0 mph S6.4 kmh S 8.0 mph12.9 kmh 30.24 in1024.0 mb 0.00 in0.0 mm 0.00 in0.0 mm 0.00 in0.0 mm
12:38 AM 51.7°F10.9°C 39.3°F4.1°C 63% 4.0 mph SSW6.4 kmh SSW 8.0 mph12.9 kmh 30.24 in1024.0 mb 0.00 in0.0 mm 0.00 in0.0 mm 0.00 in0.0 mm
12:43 AM 51.6°F10.9°C 39.2°F4.0°C 63% 5.0 mph S8.0 kmh S 8.0 mph12.9 kmh 30.24 in1024.0 mb 0.00 in0.0 mm 0.00 in0.0 mm 0.00 in0.0 mm
12:48 AM 51.5°F10.8°C 39.1°F3.9°C 63% 6.0 mph S9.7 kmh S 7.0 mph11.3 kmh 30.24 in1024.0 mb 0.00 in0.0 mm 0.00 in0.0 mm 0.00 in0.0 mm
12:53 AM 51.4°F10.8°C 39.4°F4.1°C 64% 3.0 mph SSW4.8 kmh SSW 7.0 mph11.3 kmh 30.24 in1024.0 mb 0.00 in0.0 mm 0.00 in0.0 mm 0.00 in0.0 mm
12:58 AM 51.2°F10.7°C 38.8°F3.8°C 63% 5.0 mph SW8.0 kmh SW 7.0 mph11.3 kmh 30.24 in1024.0 mb 0.00 in0.0 mm 0.00 in0.0 mm 0.00 in0.0 mm
01:03 AM 51.1°F10.6°C 39.1°F3.9°C 64% 2.0 mph SSW3.2 kmh SSW 7.0 mph11.3 kmh 30.24 in1024.0 mb 0.00 in0.0 mm 0.00 in0.0 mm 0.00 in0.0 mm
01:08 AM 51.0°F10.6°C 39.0°F3.9°C 64% 2.0 mph S3.2 kmh S 7.0 mph11.3 kmh 30.24 in1024.0 mb 0.00 in0.0 mm 0.00 in0.0 mm 0.00 in0.0 mm
01:13 AM 51.0°F10.6°C 39.0°F3.9°C 64% 3.0 mph S4.8 kmh S 7.0 mph11.3 kmh 30.24 in1024.0 mb 0.00 in0.0 mm 0.00 in0.0 mm 0.00 in0.0 mm
01:18 AM 50.9°F10.5°C 38.9°F3.8°C 64% 3.0 mph S4.8 kmh S 7.0 mph11.3 kmh 30.24 in1024.0 mb 0.00 in0.0 mm 0.00 in0.0 mm 0.00 in0.0 mm
01:23 AM 50.8°F10.4°C 39.2°F4.0°C 65% 2.0 mph S3.2 kmh S 7.0 mph11.3 kmh 30.24 in1024.0 mb 0.00 in0.0 mm 0.00 in0.0 mm 0.00 in0.0 mm
01:28 AM 50.7°F10.4°C 39.1°F3.9°C 65% 2.0 mph SSW3.2 kmh SSW 7.0 mph11.3 kmh 30.24 in1024.0 mb 0.00 in0.0 mm 0.00 in0.0 mm 0.00 in0.0 mm
01:33 AM 50.6°F10.3°C 39.0°F3.9°C 65% 4.0 mph SSW6.4 kmh SSW 7.0 mph11.3 kmh 30.24 in1024.0 mb 0.00 in0.0 mm 0.00 in0.0 mm 0.00 in0.0 mm
01:38 AM 50.6°F10.3°C 39.0°F3.9°C 65% 4.0 mph SW6.4 kmh SW 7.0 mph11.3 kmh 30.24 in1024.0 mb 0.00 in0.0 mm 0.00 in0.0 mm 0.00 in0.0 mm
01:43 AM 50.4°F10.2°C 38.9°F3.8°C 65% 5.0 mph S8.0 kmh S 7.0 mph11.3 kmh 30.24 in1024.0 mb 0.00 in0.0 mm 0.00 in0.0 mm 0.00 in0.0 mm
01:48 AM 50.3°F10.2°C 38.8°F3.8°C 65% 4.0 mph S6.4 kmh S 7.0 mph11.3 kmh 30.24 in1024.0 mb 0.00 in0.0 mm 0.00 in0.0 mm 0.00 in0.0 mm
01:53 AM 50.2°F10.1°C 39.1°F3.9°C 66% 3.0 mph S4.8 kmh S 6.0 mph9.7 kmh 30.24 in1024.0 mb 0.00 in0.0 mm 0.00 in0.0 mm 0.00 in0.0 mm
01:58 AM 50.1°F10.1°C 39.0°F3.9°C 66% 1.0 mph SSW1.6 kmh SSW 6.0 mph9.7 kmh 30.24 in1024.0 mb 0.00 in0.0 mm 0.00 in0.0 mm 0.00 in0.0 mm
02:03 AM 50.0°F10.0°C 38.9°F3.8°C 66% 3.0 mph SSW4.8 kmh SSW 6.0 mph9.7 kmh 30.24 in1024.0 mb 0.00 in0.0 mm 0.00 in0.0 mm 0.00 in0.0 mm
02:08 AM 49.9°F9.9°C 38.8°F3.8°C 66% 5.0 mph S8.0 kmh S 6.0 mph9.7 kmh 30.24 in1024.0 mb 0.00 in0.0 mm 0.00 in0.0 mm 0.00 in0.0 mm
02:13 AM 49.8°F9.9°C 39.1°F3.9°C 67% 5.0 mph SE8.0 kmh SE 6.0 mph9.7 kmh 30.24 in1024.0 mb 0.00 in0.0 mm 0.00 in0.0 mm 0.00 in0.0 mm
02:18 AM 49.7°F9.8°C 39.0°F3.9°C 67% 4.0 mph SSW6.4 kmh SSW 6.0 mph9.7 kmh 30.24 in1024.0 mb 0.00 in0.0 mm 0.00 in0.0 mm 0.00 in0.0 mm
02:23 AM 49.6°F9.8°C 38.9°F3.8°C 67% 3.0 mph SSW4.8 kmh SSW 6.0 mph9.7 kmh 30.24 in1024.0 mb 0.00 in0.0 mm 0.00 in0.0 mm 0.00 in0.0 mm
02:28 AM 49.5°F9.7°C 38.8°F3.8°C 67% 4.0 mph SSW6.4 kmh SSW 6.0 mph9.7 kmh 30.24 in1024.0 mb 0.00 in0.0 mm 0.00 in0.0 mm 0.00 in0.0 mm
02:33 AM 49.5°F9.7°C 38.8°F3.8°C 67% 1.0 mph SSW1.6 kmh SSW 6.0 mph9.7 kmh 30.24 in1024.0 mb 0.00 in0.0 mm 0.00 in0.0 mm 0.00 in0.0 mm
02:38 AM 49.4°F9.7°C 38.7°F3.7°C 67% 1.0 mph SSW1.6 kmh SSW 6.0 mph9.7 kmh 30.24 in1024.0 mb 0.00 in0.0 mm 0.00 in0.0 mm 0.00 in0.0 mm
02:43 AM 49.4°F9.7°C 38.7°F3.7°C 67% 2.0 mph SSW3.2 kmh SSW 5.0 mph8.0 kmh 30.25 in1024.4 mb 0.00 in0.0 mm 0.00 in0.0 mm 0.00 in0.0 mm
02:48 AM 49.3°F9.6°C 38.6°F3.7°C 67% Calm Calm 5.0 mph8.0 kmh 30.25 in1024.4 mb 0.00 in0.0 mm 0.00 in0.0 mm 0.00 in0.0 mm
02:53 AM 49.3°F9.6°C 38.6°F3.7°C 67% Calm Calm 4.0 mph6.4 kmh 30.25 in1024.4 mb 0.00 in0.0 mm 0.00 in0.0 mm 0.00 in0.0 mm
02:58 AM 49.2°F9.6°C 38.5°F3.6°C 67% Calm Calm 1.0 mph1.6 kmh 30.25 in1024.4 mb 0.00 in0.0 mm 0.00 in0.0 mm 0.00 in0.0 mm
03:03 AM 49.2°F9.6°C 38.5°F3.6°C 67% 1.0 mph S1.6 kmh S 2.0 mph3.2 kmh 30.25 in1024.4 mb 0.00 in0.0 mm 0.00 in0.0 mm 0.00 in0.0 mm
03:08 AM 49.1°F9.5°C 38.4°F3.6°C 67% 2.0 mph SSE3.2 kmh SSE 3.0 mph4.8 kmh 30.25 in1024.4 mb 0.00 in0.0 mm 0.00 in0.0 mm 0.00 in0.0 mm
03:13 AM 49.0°F9.4°C 38.7°F3.7°C 68% 3.0 mph S4.8 kmh S 4.0 mph6.4 kmh 30.25 in1024.4 mb 0.00 in0.0 mm 0.00 in0.0 mm 0.00 in0.0 mm
03:18 AM 48.9°F9.4°C 38.6°F3.7°C 68% 3.0 mph S4.8 kmh S 5.0 mph8.0 kmh 30.25 in1024.4 mb 0.00 in0.0 mm 0.00 in0.0 mm 0.00 in0.0 mm
03:23 AM 48.9°F9.4°C 38.6°F3.7°C 68% 2.0 mph SSW3.2 kmh SSW 5.0 mph8.0 kmh 30.25 in1024.4 mb 0.00 in0.0 mm 0.00 in0.0 mm 0.00 in0.0 mm
03:28 AM 48.9°F9.4°C 39.0°F3.9°C 69% 4.0 mph S6.4 kmh S 6.0 mph9.7 kmh 30.25 in1024.4 mb 0.00 in0.0 mm 0.00 in0.0 mm 0.00 in0.0 mm
03:33 AM 48.8°F9.3°C 38.9°F3.8°C 69% 3.0 mph SW4.8 kmh SW 7.0 mph11.3 kmh 30.25 in1024.4 mb 0.00 in0.0 mm 0.00 in0.0 mm 0.00 in0.0 mm
03:38 AM 48.8°F9.3°C 38.9°F3.8°C 69% Calm Calm 7.0 mph11.3 kmh 30.25 in1024.4 mb 0.00 in0.0 mm 0.00 in0.0 mm 0.00 in0.0 mm
03:43 AM 48.7°F9.3°C 38.8°F3.8°C 69% 2.0 mph SSE3.2 kmh SSE 7.0 mph11.3 kmh 30.24 in1024.0 mb 0.00 in0.0 mm 0.00 in0.0 mm 0.00 in0.0 mm
03:48 AM 48.6°F9.2°C 39.1°F3.9°C 70% 4.0 mph SSE6.4 kmh SSE 7.0 mph11.3 kmh 30.24 in1024.0 mb 0.00 in0.0 mm 0.00 in0.0 mm 0.00 in0.0 mm
03:53 AM 48.5°F9.2°C 39.0°F3.9°C 70% 3.0 mph S4.8 kmh S 6.0 mph9.7 kmh 30.24 in1024.0 mb 0.00 in0.0 mm 0.00 in0.0 mm 0.00 in0.0 mm
03:58 AM 48.4°F9.1°C 38.9°F3.8°C 70% 4.0 mph SW6.4 kmh SW 6.0 mph9.7 kmh 30.24 in1024.0 mb 0.00 in0.0 mm 0.00 in0.0 mm 0.00 in0.0 mm
04:03 AM 48.4°F9.1°C 38.9°F3.8°C 70% 2.0 mph S3.2 kmh S 6.0 mph9.7 kmh 30.24 in1024.0 mb 0.00 in0.0 mm 0.00 in0.0 mm 0.00 in0.0 mm
04:08 AM 48.3°F9.1°C 38.8°F3.8°C 70% 5.0 mph SSW8.0 kmh SSW 6.0 mph9.7 kmh 30.24 in1024.0 mb 0.00 in0.0 mm 0.00 in0.0 mm 0.00 in0.0 mm
04:13 AM 48.3°F9.1°C 38.8°F3.8°C 70% Calm Calm 6.0 mph9.7 kmh 30.24 in1024.0 mb 0.00 in0.0 mm 0.00 in0.0 mm 0.00 in0.0 mm
04:18 AM 48.2°F9.0°C 39.1°F3.9°C 71% 4.0 mph SW6.4 kmh SW 6.0 mph9.7 kmh 30.24 in1024.0 mb 0.00 in0.0 mm 0.00 in0.0 mm 0.00 in0.0 mm
04:23 AM 48.2°F9.0°C 39.1°F3.9°C 71% 5.0 mph S8.0 kmh S 6.0 mph9.7 kmh 30.24 in1024.0 mb 0.00 in0.0 mm 0.00 in0.0 mm 0.00 in0.0 mm
04:28 AM 48.1°F8.9°C 39.0°F3.9°C 71% 7.0 mph SW11.3 kmh SW 9.0 mph14.5 kmh 30.24 in1024.0 mb 0.00 in0.0 mm 0.00 in0.0 mm 0.00 in0.0 mm
04:33 AM 48.1°F8.9°C 39.0°F3.9°C 71% 5.0 mph SSW8.0 kmh SSW 9.0 mph14.5 kmh 30.25 in1024.4 mb 0.00 in0.0 mm 0.00 in0.0 mm 0.00 in0.0 mm
04:38 AM 48.1°F8.9°C 39.0°F3.9°C 71% 5.0 mph S8.0 kmh S 9.0 mph14.5 kmh 30.25 in1024.4 mb 0.00 in0.0 mm 0.00 in0.0 mm 0.00 in0.0 mm
04:43 AM 48.1°F8.9°C 39.0°F3.9°C 71% 4.0 mph S6.4 kmh S 9.0 mph14.5 kmh 30.25 in1024.4 mb 0.00 in0.0 mm 0.00 in0.0 mm 0.00 in0.0 mm
04:48 AM 48.1°F8.9°C 39.0°F3.9°C 71% 3.0 mph SW4.8 kmh SW 7.0 mph11.3 kmh 30.25 in1024.4 mb 0.00 in0.0 mm 0.00 in0.0 mm 0.00 in0.0 mm
04:53 AM 48.1°F8.9°C 39.0°F3.9°C 71% 2.0 mph SSW3.2 kmh SSW 7.0 mph11.3 kmh 30.25 in1024.4 mb 0.00 in0.0 mm 0.00 in0.0 mm 0.00 in0.0 mm
04:58 AM 48.0°F8.9°C 38.9°F3.8°C 71% 4.0 mph S6.4 kmh S 6.0 mph9.7 kmh 30.25 in1024.4 mb 0.00 in0.0 mm 0.00 in0.0 mm 0.00 in0.0 mm
05:03 AM 48.0°F8.9°C 38.9°F3.8°C 71% 3.0 mph S4.8 kmh S 6.0 mph9.7 kmh 30.25 in1024.4 mb 0.00 in0.0 mm 0.00 in0.0 mm 0.00 in0.0 mm
05:08 AM 48.0°F8.9°C 38.9°F3.8°C 71% 2.0 mph SSW3.2 kmh SSW 6.0 mph9.7 kmh 30.26 in1024.7 mb 0.00 in0.0 mm 0.00 in0.0 mm 0.00 in0.0 mm
05:13 AM 47.9°F8.8°C 38.8°F3.8°C 71% 2.0 mph S3.2 kmh S 6.0 mph9.7 kmh 30.26 in1024.7 mb 0.00 in0.0 mm 0.00 in0.0 mm 0.00 in0.0 mm
05:18 AM 47.9°F8.8°C 38.8°F3.8°C 71% Calm Calm 4.0 mph6.4 kmh 30.26 in1024.7 mb 0.00 in0.0 mm 0.00 in0.0 mm 0.00 in0.0 mm
05:23 AM 47.8°F8.8°C 38.7°F3.7°C 71% Calm Calm 4.0 mph6.4 kmh 30.26 in1024.7 mb 0.00 in0.0 mm 0.00 in0.0 mm 0.00 in0.0 mm
05:28 AM 47.7°F8.7°C 38.6°F3.7°C 71% Calm Calm 1.0 mph1.6 kmh 30.27 in1025.1 mb 0.00 in0.0 mm 0.00 in0.0 mm 0.00 in0.0 mm
05:33 AM 47.6°F8.7°C 38.5°F3.6°C 71% 2.0 mph SE3.2 kmh SE 3.0 mph4.8 kmh 30.27 in1025.1 mb 0.00 in0.0 mm 0.00 in0.0 mm 0.00 in0.0 mm
05:38 AM 47.4°F8.6°C 38.3°F3.5°C 71% 1.0 mph SE1.6 kmh SE 3.0 mph4.8 kmh 30.27 in1025.1 mb 0.00 in0.0 mm 0.00 in0.0 mm 0.00 in0.0 mm
05:43 AM 47.2°F8.4°C 38.1°F3.4°C 71% 3.0 mph SE4.8 kmh SE 4.0 mph6.4 kmh 30.27 in1025.1 mb 0.00 in0.0 mm 0.00 in0.0 mm 0.00 in0.0 mm
05:48 AM 47.0°F8.3°C 38.3°F3.5°C 72% 2.0 mph SSE3.2 kmh SSE 4.0 mph6.4 kmh 30.27 in1025.1 mb 0.00 in0.0 mm 0.00 in0.0 mm 0.00 in0.0 mm
05:53 AM 46.8°F8.2°C 38.5°F3.6°C 73% Calm Calm -- 30.27 in1025.1 mb 0.00 in0.0 mm 0.00 in0.0 mm 0.00 in0.0 mm
05:58 AM 46.6°F8.1°C 38.3°F3.5°C 73% Calm Calm 4.0 mph6.4 kmh 30.27 in1025.1 mb 0.00 in0.0 mm 0.00 in0.0 mm 0.00 in0.0 mm
06:03 AM 46.5°F8.1°C 38.5°F3.6°C 74% Calm Calm 3.0 mph4.8 kmh 30.27 in1025.1 mb 0.00 in0.0 mm 0.00 in0.0 mm 0.00 in0.0 mm
06:08 AM 46.3°F7.9°C 38.7°F3.7°C 75% 3.0 mph SE4.8 kmh SE 3.0 mph4.8 kmh 30.27 in1025.1 mb 0.00 in0.0 mm 0.00 in0.0 mm 0.00 in0.0 mm
06:13 AM 46.2°F7.9°C 38.6°F3.7°C 75% 3.0 mph S4.8 kmh S 5.0 mph8.0 kmh 30.27 in1025.1 mb 0.00 in0.0 mm 0.00 in0.0 mm 0.00 in0.0 mm
06:18 AM 46.1°F7.8°C 38.5°F3.6°C 75% 2.0 mph SSW3.2 kmh SSW 5.0 mph8.0 kmh 30.28 in1025.4 mb 0.00 in0.0 mm 0.00 in0.0 mm 0.00 in0.0 mm
06:23 AM 46.1°F7.8°C 38.5°F3.6°C 75% 3.0 mph SW4.8 kmh SW 5.0 mph8.0 kmh 30.28 in1025.4 mb 0.00 in0.0 mm 0.00 in0.0 mm 0.00 in0.0 mm
06:28 AM 46.2°F7.9°C 39.0°F3.9°C 76% 2.0 mph SSE3.2 kmh SSE 5.0 mph8.0 kmh 30.28 in1025.4 mb 0.00 in0.0 mm 0.00 in0.0 mm 0.00 in0.0 mm
06:33 AM 46.2°F7.9°C 39.0°F3.9°C 76% 3.0 mph SW4.8 kmh SW 4.0 mph6.4 kmh 30.28 in1025.4 mb 0.00 in0.0 mm 0.00 in0.0 mm 0.00 in0.0 mm
06:38 AM 46.2°F7.9°C 39.0°F3.9°C 76% 2.0 mph S3.2 kmh S 4.0 mph6.4 kmh 30.28 in1025.4 mb 0.00 in0.0 mm 0.00 in0.0 mm 0.00 in0.0 mm
06:43 AM 46.3°F7.9°C 39.1°F3.9°C 76% 3.0 mph SSE4.8 kmh SSE 4.0 mph6.4 kmh 30.28 in1025.4 mb 0.00 in0.0 mm 0.00 in0.0 mm 0.00 in0.0 mm
06:48 AM 46.3°F7.9°C 39.1°F3.9°C 76% 3.0 mph S4.8 kmh S 5.0 mph8.0 kmh 30.28 in1025.4 mb 0.00 in0.0 mm 0.00 in0.0 mm 0.00 in0.0 mm
06:53 AM 46.4°F8.0°C 38.8°F3.8°C 75% 3.0 mph S4.8 kmh S 5.0 mph8.0 kmh 30.28 in1025.4 mb 0.00 in0.0 mm 0.00 in0.0 mm 0.00 in0.0 mm
06:58 AM 46.4°F8.0°C 38.8°F3.8°C 75% Calm Calm 5.0 mph8.0 kmh 30.28 in1025.4 mb 0.00 in0.0 mm 0.00 in0.0 mm 0.00 in0.0 mm
07:03 AM 46.5°F8.1°C 38.9°F3.8°C 75% 1.0 mph SE1.6 kmh SE 5.0 mph8.0 kmh 30.28 in1025.4 mb 0.00 in0.0 mm 0.00 in0.0 mm 0.00 in0.0 mm
07:08 AM 46.5°F8.1°C 38.9°F3.8°C 75% 2.0 mph SSW3.2 kmh SSW 5.0 mph8.0 kmh 30.29 in1025.7 mb 0.00 in0.0 mm 0.00 in0.0 mm 0.00 in0.0 mm
07:13 AM 46.4°F8.0°C 38.8°F3.8°C 75% 3.0 mph S4.8 kmh S 5.0 mph8.0 kmh 30.29 in1025.7 mb 0.00 in0.0 mm 0.00 in0.0 mm 0.00 in0.0 mm
07:18 AM 46.4°F8.0°C 38.8°F3.8°C 75% 2.0 mph SW3.2 kmh SW 5.0 mph8.0 kmh 30.28 in1025.4 mb 0.00 in0.0 mm 0.00 in0.0 mm 0.00 in0.0 mm
07:23 AM 46.4°F8.0°C 39.1°F3.9°C 76% Calm Calm 5.0 mph8.0 kmh 30.28 in1025.4 mb 0.00 in0.0 mm 0.00 in0.0 mm 0.00 in0.0 mm
07:28 AM 46.3°F7.9°C 39.1°F3.9°C 76% 3.0 mph SW4.8 kmh SW 5.0 mph8.0 kmh 30.29 in1025.7 mb 0.00 in0.0 mm 0.00 in0.0 mm 0.00 in0.0 mm
07:33 AM 46.3°F7.9°C 39.1°F3.9°C 76% Calm Calm 5.0 mph8.0 kmh 30.28 in1025.4 mb 0.00 in0.0 mm 0.00 in0.0 mm 0.00 in0.0 mm
07:38 AM 46.1°F7.8°C 38.9°F3.8°C 76% 1.0 mph S1.6 kmh S 3.0 mph4.8 kmh 30.29 in1025.7 mb 0.00 in0.0 mm 0.00 in0.0 mm 0.00 in0.0 mm
07:43 AM 46.1°F7.8°C 38.9°F3.8°C 76% 1.0 mph SW1.6 kmh SW 3.0 mph4.8 kmh 30.29 in1025.7 mb 0.00 in0.0 mm 0.00 in0.0 mm 0.00 in0.0 mm
07:48 AM 46.0°F7.8°C 38.8°F3.8°C 76% 1.0 mph SSW1.6 kmh SSW 1.0 mph1.6 kmh 30.28 in1025.4 mb 0.00 in0.0 mm 0.00 in0.0 mm 0.00 in0.0 mm
07:53 AM 45.9°F7.7°C 38.7°F3.7°C 76% 1.0 mph SSW1.6 kmh SSW 2.0 mph3.2 kmh 30.28 in1025.4 mb 0.00 in0.0 mm 0.00 in0.0 mm 0.00 in0.0 mm
07:58 AM 45.9°F7.7°C 39.0°F3.9°C 77% 3.0 mph SSW4.8 kmh SSW 3.0 mph4.8 kmh 30.29 in1025.7 mb 0.00 in0.0 mm 0.00 in0.0 mm 0.00 in0.0 mm
08:03 AM 45.8°F7.7°C 38.9°F3.8°C 77% 2.0 mph SSW3.2 kmh SSW 3.0 mph4.8 kmh 30.28 in1025.4 mb 0.00 in0.0 mm 0.00 in0.0 mm 0.00 in0.0 mm
08:08 AM 45.8°F7.7°C 38.9°F3.8°C 77% 1.0 mph S1.6 kmh S 3.0 mph4.8 kmh 30.28 in1025.4 mb 0.00 in0.0 mm 0.00 in0.0 mm 0.00 in0.0 mm
08:13 AM 45.8°F7.7°C 39.3°F4.1°C 78% Calm Calm 4.0 mph6.4 kmh 30.28 in1025.4 mb 0.00 in0.0 mm 0.00 in0.0 mm 0.00 in0.0 mm
08:18 AM 45.9°F7.7°C 39.3°F4.1°C 78% 3.0 mph S4.8 kmh S 4.0 mph6.4 kmh 30.29 in1025.7 mb 0.00 in0.0 mm 0.00 in0.0 mm 0.00 in0.0 mm
08:23 AM 45.9°F7.7°C 39.3°F4.1°C 78% 1.0 mph SSW1.6 kmh SSW 4.0 mph6.4 kmh 30.29 in1025.7 mb 0.00 in0.0 mm 0.00 in0.0 mm 0.00 in0.0 mm
08:28 AM 46.1°F7.8°C 39.5°F4.2°C 78% 1.0 mph SSE1.6 kmh SSE 5.0 mph8.0 kmh 30.29 in1025.7 mb 0.00 in0.0 mm 0.00 in0.0 mm 0.00 in0.0 mm
08:33 AM 46.3°F7.9°C 39.7°F4.3°C 78% Calm Calm 5.0 mph8.0 kmh 30.29 in1025.7 mb 0.00 in0.0 mm 0.00 in0.0 mm 0.00 in0.0 mm
08:38 AM 46.8°F8.2°C 40.6°F4.8°C 79% 4.0 mph SW6.4 kmh SW 5.0 mph8.0 kmh 30.29 in1025.7 mb 0.00 in0.0 mm 0.00 in0.0 mm 0.00 in0.0 mm
08:43 AM 47.9°F8.8°C 40.6°F4.8°C 76% 3.0 mph S4.8 kmh S 5.0 mph8.0 kmh 30.29 in1025.7 mb 0.00 in0.0 mm 0.00 in0.0 mm 0.00 in0.0 mm
08:48 AM 48.5°F9.2°C 40.5°F4.7°C 74% 5.0 mph S8.0 kmh S 7.0 mph11.3 kmh 30.30 in1026.1 mb 0.00 in0.0 mm 0.00 in0.0 mm 0.00 in0.0 mm
08:53 AM 48.9°F9.4°C 40.1°F4.5°C 72% 4.0 mph S6.4 kmh S 7.0 mph11.3 kmh 30.29 in1025.7 mb 0.00 in0.0 mm 0.00 in0.0 mm 0.00 in0.0 mm
08:58 AM 49.3°F9.6°C 40.5°F4.7°C 72% 5.0 mph S8.0 kmh S 7.0 mph11.3 kmh 30.30 in1026.1 mb 0.00 in0.0 mm 0.00 in0.0 mm 0.00 in0.0 mm
09:03 AM 49.8°F9.9°C 40.6°F4.8°C 71% 4.0 mph S6.4 kmh S 7.0 mph11.3 kmh 30.30 in1026.1 mb 0.00 in0.0 mm 0.00 in0.0 mm 0.00 in0.0 mm
09:08 AM 50.3°F10.2°C 41.1°F5.1°C 71% 5.0 mph S8.0 kmh S 7.0 mph11.3 kmh 30.29 in1025.7 mb 0.00 in0.0 mm 0.00 in0.0 mm 0.00 in0.0 mm
09:13 AM 50.9°F10.5°C 40.9°F4.9°C 69% 3.0 mph SW4.8 kmh SW 7.0 mph11.3 kmh 30.30 in1026.1 mb 0.00 in0.0 mm 0.00 in0.0 mm 0.00 in0.0 mm
09:18 AM 51.4°F10.8°C 41.0°F5.0°C 68% 5.0 mph SSW8.0 kmh SSW 6.0 mph9.7 kmh 30.30 in1026.1 mb 0.00 in0.0 mm 0.00 in0.0 mm 0.00 in0.0 mm
09:23 AM 52.0°F11.1°C 41.6°F5.3°C 68% 4.0 mph S6.4 kmh S 8.0 mph12.9 kmh 30.30 in1026.1 mb 0.00 in0.0 mm 0.00 in0.0 mm 0.00 in0.0 mm
09:28 AM 52.4°F11.3°C 41.6°F5.3°C 67% 3.0 mph S4.8 kmh S 8.0 mph12.9 kmh 30.30 in1026.1 mb 0.00 in0.0 mm 0.00 in0.0 mm 0.00 in0.0 mm
09:33 AM 53.0°F11.7°C 42.1°F5.6°C 67% 2.0 mph S3.2 kmh S 8.0 mph12.9 kmh 30.30 in1026.1 mb 0.00 in0.0 mm 0.00 in0.0 mm 0.00 in0.0 mm
09:38 AM 53.5°F11.9°C 42.2°F5.7°C 66% 3.0 mph S4.8 kmh S 8.0 mph12.9 kmh 30.30 in1026.1 mb 0.00 in0.0 mm 0.00 in0.0 mm 0.00 in0.0 mm
09:43 AM 53.9°F12.2°C 42.2°F5.7°C 65% 7.0 mph S11.3 kmh S 7.0 mph11.3 kmh 30.30 in1026.1 mb 0.00 in0.0 mm 0.00 in0.0 mm 0.00 in0.0 mm
09:48 AM 54.4°F12.4°C 42.2°F5.7°C 64% 5.0 mph S8.0 kmh S 8.0 mph12.9 kmh 30.30 in1026.1 mb 0.00 in0.0 mm 0.00 in0.0 mm 0.00 in0.0 mm
09:53 AM 54.8°F12.7°C 42.6°F5.9°C 64% 5.0 mph SSW8.0 kmh SSW 8.0 mph12.9 kmh 30.30 in1026.1 mb 0.00 in0.0 mm 0.00 in0.0 mm 0.00 in0.0 mm
09:58 AM 55.4°F13.0°C 42.7°F5.9°C 63% 4.0 mph SW6.4 kmh SW 8.0 mph12.9 kmh 30.30 in1026.1 mb 0.00 in0.0 mm 0.00 in0.0 mm 0.00 in0.0 mm
10:03 AM 55.9°F13.3°C 42.8°F6.0°C 62% 6.0 mph SW9.7 kmh SW 8.0 mph12.9 kmh 30.30 in1026.1 mb 0.00 in0.0 mm 0.00 in0.0 mm 0.00 in0.0 mm
10:08 AM 56.3°F13.5°C 43.2°F6.2°C 62% 4.0 mph SW6.4 kmh SW 8.0 mph12.9 kmh 30.30 in1026.1 mb 0.00 in0.0 mm 0.00 in0.0 mm 0.00 in0.0 mm
10:13 AM 56.7°F13.7°C 42.6°F5.9°C 60% 5.0 mph SW8.0 kmh SW 8.0 mph12.9 kmh 30.30 in1026.1 mb 0.00 in0.0 mm 0.00 in0.0 mm 0.00 in0.0 mm
10:18 AM 57.5°F14.2°C 43.8°F6.6°C 61% 6.0 mph SW9.7 kmh SW 8.0 mph12.9 kmh 30.30 in1026.1 mb 0.00 in0.0 mm 0.00 in0.0 mm 0.00 in0.0 mm
10:23 AM 57.5°F14.2°C 42.9°F6.1°C 59% 6.0 mph SSW9.7 kmh SSW 9.0 mph14.5 kmh 30.30 in1026.1 mb 0.00 in0.0 mm 0.00 in0.0 mm 0.00 in0.0 mm
10:28 AM 58.0°F14.4°C 43.4°F6.3°C 59% 3.0 mph SSW4.8 kmh SSW 9.0 mph14.5 kmh 30.29 in1025.7 mb 0.00 in0.0 mm 0.00 in0.0 mm 0.00 in0.0 mm
10:33 AM 58.1°F14.5°C 43.0°F6.1°C 58% 5.0 mph SW8.0 kmh SW 9.0 mph14.5 kmh 30.30 in1026.1 mb 0.00 in0.0 mm 0.00 in0.0 mm 0.00 in0.0 mm
10:38 AM 58.6°F14.8°C 44.0°F6.7°C 59% 7.0 mph SSW11.3 kmh SSW 9.0 mph14.5 kmh 30.30 in1026.1 mb 0.00 in0.0 mm 0.00 in0.0 mm 0.00 in0.0 mm
10:43 AM 59.0°F15.0°C 43.9°F6.6°C 58% 5.0 mph SSW8.0 kmh SSW 8.0 mph12.9 kmh 30.29 in1025.7 mb 0.00 in0.0 mm 0.00 in0.0 mm 0.00 in0.0 mm
10:48 AM 59.4°F15.2°C 44.3°F6.8°C 58% 6.0 mph S9.7 kmh S 8.0 mph12.9 kmh 30.29 in1025.7 mb 0.00 in0.0 mm 0.00 in0.0 mm 0.00 in0.0 mm
10:53 AM 59.7°F15.4°C 44.1°F6.7°C 57% 2.0 mph SW3.2 kmh SW 7.0 mph11.3 kmh 30.29 in1025.7 mb 0.00 in0.0 mm 0.00 in0.0 mm 0.00 in0.0 mm
10:58 AM 60.2°F15.7°C 44.0°F6.7°C 56% 3.0 mph SSW4.8 kmh SSW 7.0 mph11.3 kmh 30.29 in1025.7 mb 0.00 in0.0 mm 0.00 in0.0 mm 0.00 in0.0 mm
11:03 AM 60.6°F15.9°C 44.4°F6.9°C 56% 3.0 mph SW4.8 kmh SW 8.0 mph12.9 kmh 30.29 in1025.7 mb 0.00 in0.0 mm 0.00 in0.0 mm 0.00 in0.0 mm
11:08 AM 61.0°F16.1°C 44.3°F6.8°C 55% 7.0 mph SW11.3 kmh SW 8.0 mph12.9 kmh 30.29 in1025.7 mb 0.00 in0.0 mm 0.00 in0.0 mm 0.00 in0.0 mm
11:13 AM 61.4°F16.3°C 43.7°F6.5°C 53% 6.0 mph S9.7 kmh S 8.0 mph12.9 kmh 30.29 in1025.7 mb 0.00 in0.0 mm 0.00 in0.0 mm 0.00 in0.0 mm
11:18 AM 61.5°F16.4°C 44.3°F6.8°C 54% 3.0 mph S4.8 kmh S 9.0 mph14.5 kmh 30.29 in1025.7 mb 0.00 in0.0 mm 0.00 in0.0 mm 0.00 in0.0 mm
11:23 AM 61.8°F16.6°C 44.5°F6.9°C 54% 3.0 mph S4.8 kmh S 9.0 mph14.5 kmh 30.29 in1025.7 mb 0.00 in0.0 mm 0.00 in0.0 mm 0.00 in0.0 mm
11:28 AM 62.4°F16.9°C 45.1°F7.3°C 54% 4.0 mph SSW6.4 kmh SSW 9.0 mph14.5 kmh 30.29 in1025.7 mb 0.00 in0.0 mm 0.00 in0.0 mm 0.00 in0.0 mm
11:33 AM 62.7°F17.1°C 44.9°F7.2°C 53% 11.0 mph SW17.7 kmh SW 14.0 mph22.5 kmh 30.29 in1025.7 mb 0.00 in0.0 mm 0.00 in0.0 mm 0.00 in0.0 mm
11:38 AM 62.6°F17.0°C 44.2°F6.8°C 52% 6.0 mph SW9.7 kmh SW 14.0 mph22.5 kmh 30.29 in1025.7 mb 0.00 in0.0 mm 0.00 in0.0 mm 0.00 in0.0 mm
11:43 AM 63.2°F17.3°C 44.8°F7.1°C 52% 6.0 mph SW9.7 kmh SW 14.0 mph22.5 kmh 30.28 in1025.4 mb 0.00 in0.0 mm 0.00 in0.0 mm 0.00 in0.0 mm
11:48 AM 63.9°F17.7°C 46.0°F7.8°C 53% 7.0 mph WSW11.3 kmh WSW 14.0 mph22.5 kmh 30.28 in1025.4 mb 0.00 in0.0 mm 0.00 in0.0 mm 0.00 in0.0 mm
11:53 AM 64.2°F17.9°C 45.2°F7.3°C 51% 9.0 mph WSW14.5 kmh WSW 14.0 mph22.5 kmh 30.28 in1025.4 mb 0.00 in0.0 mm 0.00 in0.0 mm 0.00 in0.0 mm
11:58 AM 64.4°F18.0°C 45.4°F7.4°C 51% 6.0 mph SSW9.7 kmh SSW 14.0 mph22.5 kmh 30.28 in1025.4 mb 0.00 in0.0 mm 0.00 in0.0 mm 0.00 in0.0 mm
12:03 PM 64.7°F18.2°C 44.5°F6.9°C 49% 10.0 mph SW16.1 kmh SW 14.0 mph22.5 kmh 30.28 in1025.4 mb 0.00 in0.0 mm 0.00 in0.0 mm 0.00 in0.0 mm
12:08 PM 64.7°F18.2°C 45.1°F7.3°C 50% 7.0 mph SW11.3 kmh SW 13.0 mph20.9 kmh 30.28 in1025.4 mb 0.00 in0.0 mm 0.00 in0.0 mm 0.00 in0.0 mm
12:13 PM 64.7°F18.2°C 45.6°F7.6°C 51% 7.0 mph SSW11.3 kmh SSW 13.0 mph20.9 kmh 30.28 in1025.4 mb 0.00 in0.0 mm 0.00 in0.0 mm 0.00 in0.0 mm
12:18 PM 65.5°F18.6°C 45.8°F7.7°C 50% 5.0 mph SW8.0 kmh SW 12.0 mph19.3 kmh 30.28 in1025.4 mb 0.00 in0.0 mm 0.00 in0.0 mm 0.00 in0.0 mm
12:23 PM 65.4°F18.6°C 45.2°F7.3°C 49% 9.0 mph SSW14.5 kmh SSW 12.0 mph19.3 kmh 30.27 in1025.1 mb 0.00 in0.0 mm 0.00 in0.0 mm 0.00 in0.0 mm
12:28 PM 65.6°F18.7°C 44.8°F7.1°C 48% 6.0 mph SW9.7 kmh SW 11.0 mph17.7 kmh 30.27 in1025.1 mb 0.00 in0.0 mm 0.00 in0.0 mm 0.00 in0.0 mm
12:33 PM 65.7°F18.7°C 44.3°F6.8°C 47% 9.0 mph SSW14.5 kmh SSW 12.0 mph19.3 kmh 30.27 in1025.1 mb 0.00 in0.0 mm 0.00 in0.0 mm 0.00 in0.0 mm
12:38 PM 65.6°F18.7°C 44.2°F6.8°C 47% 4.0 mph SW6.4 kmh SW 12.0 mph19.3 kmh 30.27 in1025.1 mb 0.00 in0.0 mm 0.00 in0.0 mm 0.00 in0.0 mm
12:43 PM 65.9°F18.8°C 45.1°F7.3°C 48% 7.0 mph SW11.3 kmh SW 12.0 mph19.3 kmh 30.27 in1025.1 mb 0.00 in0.0 mm 0.00 in0.0 mm 0.00 in0.0 mm
12:48 PM 66.6°F19.2°C 44.5°F6.9°C 46% 11.0 mph SW17.7 kmh SW 12.0 mph19.3 kmh 30.26 in1024.7 mb 0.00 in0.0 mm 0.00 in0.0 mm 0.00 in0.0 mm
12:53 PM 66.5°F19.2°C 45.6°F7.6°C 48% 7.0 mph WSW11.3 kmh WSW 12.0 mph19.3 kmh 30.26 in1024.7 mb 0.00 in0.0 mm 0.00 in0.0 mm 0.00 in0.0 mm
12:58 PM 66.7°F19.3°C 44.6°F7.0°C 46% 6.0 mph SSE9.7 kmh SSE 12.0 mph19.3 kmh 30.26 in1024.7 mb 0.00 in0.0 mm 0.00 in0.0 mm 0.00 in0.0 mm
01:03 PM 66.5°F19.2°C 44.5°F6.9°C 46% 5.0 mph SW8.0 kmh SW 13.0 mph20.9 kmh 30.25 in1024.4 mb 0.00 in0.0 mm 0.00 in0.0 mm 0.00 in0.0 mm
01:08 PM 66.7°F19.3°C 45.8°F7.7°C 48% 4.0 mph S6.4 kmh S 13.0 mph20.9 kmh 30.25 in1024.4 mb 0.00 in0.0 mm 0.00 in0.0 mm 0.00 in0.0 mm
01:13 PM 67.5°F19.7°C 45.4°F7.4°C 46% 14.0 mph SW22.5 kmh SW 15.0 mph24.1 kmh 30.25 in1024.4 mb 0.00 in0.0 mm 0.00 in0.0 mm 0.00 in0.0 mm
01:18 PM 67.7°F19.8°C 44.3°F6.8°C 44% 12.0 mph S19.3 kmh S 15.0 mph24.1 kmh 30.25 in1024.4 mb 0.00 in0.0 mm 0.00 in0.0 mm 0.00 in0.0 mm
01:28 PM 67.4°F19.7°C 44.7°F7.1°C 45% 8.0 mph S12.9 kmh S 15.0 mph24.1 kmh 30.24 in1024.0 mb 0.00 in0.0 mm 0.00 in0.0 mm 0.00 in0.0 mm
01:33 PM 68.0°F20.0°C 45.2°F7.3°C 45% 9.0 mph SE14.5 kmh SE 15.0 mph24.1 kmh 30.24 in1024.0 mb 0.00 in0.0 mm 0.00 in0.0 mm 0.00 in0.0 mm
01:38 PM 67.7°F19.8°C 43.7°F6.5°C 43% 8.0 mph S12.9 kmh S 15.0 mph24.1 kmh 30.23 in1023.7 mb 0.00 in0.0 mm 0.00 in0.0 mm 0.00 in0.0 mm
01:43 PM 67.9°F19.9°C 44.5°F6.9°C 44% 14.0 mph SSE22.5 kmh SSE 15.0 mph24.1 kmh 30.23 in1023.7 mb 0.00 in0.0 mm 0.00 in0.0 mm 0.00 in0.0 mm
01:48 PM 68.0°F20.0°C 43.3°F6.3°C 42% 5.0 mph S8.0 kmh S 15.0 mph24.1 kmh 30.23 in1023.7 mb 0.00 in0.0 mm 0.00 in0.0 mm 0.00 in0.0 mm
01:53 PM 67.8°F19.9°C 43.8°F6.6°C 43% 8.0 mph S12.9 kmh S 14.0 mph22.5 kmh 30.23 in1023.7 mb 0.00 in0.0 mm 0.00 in0.0 mm 0.00 in0.0 mm
01:58 PM 68.2°F20.1°C 44.8°F7.1°C 44% 8.0 mph SW12.9 kmh SW 14.0 mph22.5 kmh 30.22 in1023.4 mb 0.00 in0.0 mm 0.00 in0.0 mm 0.00 in0.0 mm
02:03 PM 68.1°F20.1°C 43.4°F6.3°C 42% 8.0 mph WSW12.9 kmh WSW 14.0 mph22.5 kmh 30.22 in1023.4 mb 0.00 in0.0 mm 0.00 in0.0 mm 0.00 in0.0 mm
02:08 PM 68.2°F20.1°C 43.5°F6.4°C 42% 9.0 mph SSW14.5 kmh SSW 14.0 mph22.5 kmh 30.22 in1023.4 mb 0.00 in0.0 mm 0.00 in0.0 mm 0.00 in0.0 mm
02:13 PM 68.2°F20.1°C 43.5°F6.4°C 42% 9.0 mph S14.5 kmh S 14.0 mph22.5 kmh 30.21 in1023.0 mb 0.00 in0.0 mm 0.00 in0.0 mm 0.00 in0.0 mm
02:18 PM 68.1°F20.1°C 44.0°F6.7°C 43% 7.0 mph SSW11.3 kmh SSW 14.0 mph22.5 kmh 30.21 in1023.0 mb 0.00 in0.0 mm 0.00 in0.0 mm 0.00 in0.0 mm
02:23 PM 68.7°F20.4°C 44.6°F7.0°C 43% 6.0 mph SW9.7 kmh SW 13.0 mph20.9 kmh 30.21 in1023.0 mb 0.00 in0.0 mm 0.00 in0.0 mm 0.00 in0.0 mm
02:28 PM 68.7°F20.4°C 43.3°F6.3°C 41% 6.0 mph SSW9.7 kmh SSW 13.0 mph20.9 kmh 30.20 in1022.7 mb 0.00 in0.0 mm 0.00 in0.0 mm 0.00 in0.0 mm
02:33 PM 68.5°F20.3°C 44.4°F6.9°C 43% 9.0 mph SSE14.5 kmh SSE 13.0 mph20.9 kmh 30.20 in1022.7 mb 0.00 in0.0 mm 0.00 in0.0 mm 0.00 in0.0 mm
02:38 PM 68.7°F20.4°C 43.9°F6.6°C 42% 8.0 mph SW12.9 kmh SW 16.0 mph25.7 kmh 30.20 in1022.7 mb 0.00 in0.0 mm 0.00 in0.0 mm 0.00 in0.0 mm
02:43 PM 68.5°F20.3°C 43.1°F6.2°C 41% 6.0 mph S9.7 kmh S 16.0 mph25.7 kmh 30.20 in1022.7 mb 0.00 in0.0 mm 0.00 in0.0 mm 0.00 in0.0 mm
02:48 PM 68.6°F20.3°C 42.5°F5.8°C 40% 8.0 mph S12.9 kmh S 17.0 mph27.4 kmh 30.19 in1022.4 mb 0.00 in0.0 mm 0.00 in0.0 mm 0.00 in0.0 mm
02:53 PM 69.0°F20.6°C 43.5°F6.4°C 41% 6.0 mph SSW9.7 kmh SSW 17.0 mph27.4 kmh 30.19 in1022.4 mb 0.00 in0.0 mm 0.00 in0.0 mm 0.00 in0.0 mm
02:58 PM 69.4°F20.8°C 43.9°F6.6°C 41% 7.0 mph SSW11.3 kmh SSW 17.0 mph27.4 kmh 30.19 in1022.4 mb 0.00 in0.0 mm 0.00 in0.0 mm 0.00 in0.0 mm
03:03 PM 69.4°F20.8°C 42.5°F5.8°C 39% 12.0 mph S19.3 kmh S 17.0 mph27.4 kmh 30.19 in1022.4 mb 0.00 in0.0 mm 0.00 in0.0 mm 0.00 in0.0 mm
03:08 PM 69.4°F20.8°C 43.2°F6.2°C 40% 12.0 mph SSW19.3 kmh SSW 14.0 mph22.5 kmh 30.19 in1022.4 mb 0.00 in0.0 mm 0.00 in0.0 mm 0.00 in0.0 mm
03:13 PM 69.2°F20.7°C 42.3°F5.7°C 39% 8.0 mph SSW12.9 kmh SSW 14.0 mph22.5 kmh 30.18 in1022.0 mb 0.00 in0.0 mm 0.00 in0.0 mm 0.00 in0.0 mm
03:18 PM 69.5°F20.8°C 43.3°F6.3°C 40% 6.0 mph S9.7 kmh S 15.0 mph24.1 kmh 30.18 in1022.0 mb 0.00 in0.0 mm 0.00 in0.0 mm 0.00 in0.0 mm
03:23 PM 69.1°F20.6°C 41.5°F5.3°C 38% 8.0 mph S12.9 kmh S 15.0 mph24.1 kmh 30.18 in1022.0 mb 0.00 in0.0 mm 0.00 in0.0 mm 0.00 in0.0 mm
03:28 PM 68.7°F20.4°C 41.9°F5.5°C 39% 6.0 mph SW9.7 kmh SW 15.0 mph24.1 kmh 30.18 in1022.0 mb 0.00 in0.0 mm 0.00 in0.0 mm 0.00 in0.0 mm
03:33 PM 68.8°F20.4°C 43.4°F6.3°C 41% 8.0 mph SSW12.9 kmh SSW 15.0 mph24.1 kmh 30.18 in1022.0 mb 0.00 in0.0 mm 0.00 in0.0 mm 0.00 in0.0 mm
03:38 PM 68.8°F20.4°C 42.7°F5.9°C 40% 8.0 mph S12.9 kmh S 13.0 mph20.9 kmh 30.18 in1022.0 mb 0.00 in0.0 mm 0.00 in0.0 mm 0.00 in0.0 mm
03:43 PM 68.8°F20.4°C 42.0°F5.6°C 39% 12.0 mph SW19.3 kmh SW 13.0 mph20.9 kmh 30.18 in1022.0 mb 0.00 in0.0 mm 0.00 in0.0 mm 0.00 in0.0 mm
03:48 PM 68.6°F20.3°C 42.5°F5.8°C 40% 9.0 mph SW14.5 kmh SW 15.0 mph24.1 kmh 30.18 in1022.0 mb 0.00 in0.0 mm 0.00 in0.0 mm 0.00 in0.0 mm
03:53 PM 68.6°F20.3°C 43.2°F6.2°C 41% 11.0 mph SW17.7 kmh SW 15.0 mph24.1 kmh 30.18 in1022.0 mb 0.00 in0.0 mm 0.00 in0.0 mm 0.00 in0.0 mm
03:58 PM 68.6°F20.3°C 43.2°F6.2°C 41% 7.0 mph S11.3 kmh S 15.0 mph24.1 kmh 30.17 in1021.7 mb 0.00 in0.0 mm 0.00 in0.0 mm 0.00 in0.0 mm
04:03 PM 68.5°F20.3°C 42.4°F5.8°C 40% 7.0 mph SSW11.3 kmh SSW 15.0 mph24.1 kmh 30.17 in1021.7 mb 0.00 in0.0 mm 0.00 in0.0 mm 0.00 in0.0 mm
04:08 PM 68.5°F20.3°C 42.4°F5.8°C 40% 8.0 mph SSW12.9 kmh SSW 15.0 mph24.1 kmh 30.17 in1021.7 mb 0.00 in0.0 mm 0.00 in0.0 mm 0.00 in0.0 mm
04:13 PM 68.5°F20.3°C 43.8°F6.6°C 42% 5.0 mph SSW8.0 kmh SSW 15.0 mph24.1 kmh 30.17 in1021.7 mb 0.00 in0.0 mm 0.00 in0.0 mm 0.00 in0.0 mm
04:18 PM 68.5°F20.3°C 42.4°F5.8°C 40% 6.0 mph SW9.7 kmh SW 15.0 mph24.1 kmh 30.17 in1021.7 mb 0.00 in0.0 mm 0.00 in0.0 mm 0.00 in0.0 mm
04:23 PM 68.6°F20.3°C 43.2°F6.2°C 41% 6.0 mph S9.7 kmh S 15.0 mph24.1 kmh 30.17 in1021.7 mb 0.00 in0.0 mm 0.00 in0.0 mm 0.00 in0.0 mm
04:28 PM 68.6°F20.3°C 43.2°F6.2°C 41% 7.0 mph SW11.3 kmh SW 13.0 mph20.9 kmh 30.17 in1021.7 mb 0.00 in0.0 mm 0.00 in0.0 mm 0.00 in0.0 mm
04:33 PM 68.7°F20.4°C 43.3°F6.3°C 41% 11.0 mph S17.7 kmh S 14.0 mph22.5 kmh 30.16 in1021.3 mb 0.00 in0.0 mm 0.00 in0.0 mm 0.00 in0.0 mm
04:38 PM 68.8°F20.4°C 42.7°F5.9°C 40% 7.0 mph S11.3 kmh S 14.0 mph22.5 kmh 30.16 in1021.3 mb 0.00 in0.0 mm 0.00 in0.0 mm 0.00 in0.0 mm
04:43 PM 69.0°F20.6°C 42.2°F5.7°C 39% 4.0 mph SSW6.4 kmh SSW 14.0 mph22.5 kmh 30.16 in1021.3 mb 0.00 in0.0 mm 0.00 in0.0 mm 0.00 in0.0 mm
04:48 PM 68.9°F20.5°C 42.1°F5.6°C 39% 2.0 mph SSW3.2 kmh SSW 14.0 mph22.5 kmh 30.16 in1021.3 mb 0.00 in0.0 mm 0.00 in0.0 mm 0.00 in0.0 mm
04:53 PM 68.8°F20.4°C 42.0°F5.6°C 39% 7.0 mph S11.3 kmh S 13.0 mph20.9 kmh 30.16 in1021.3 mb 0.00 in0.0 mm 0.00 in0.0 mm 0.00 in0.0 mm
04:58 PM 68.8°F20.4°C 42.0°F5.6°C 39% 7.0 mph SSW11.3 kmh SSW 13.0 mph20.9 kmh 30.16 in1021.3 mb 0.00 in0.0 mm 0.00 in0.0 mm 0.00 in0.0 mm
05:03 PM 68.7°F20.4°C 41.9°F5.5°C 39% 9.0 mph SSW14.5 kmh SSW 15.0 mph24.1 kmh 30.16 in1021.3 mb 0.00 in0.0 mm 0.00 in0.0 mm 0.00 in0.0 mm
05:08 PM 68.6°F20.3°C 41.8°F5.4°C 39% 5.0 mph SE8.0 kmh SE 15.0 mph24.1 kmh 30.15 in1021.0 mb 0.00 in0.0 mm 0.00 in0.0 mm 0.00 in0.0 mm
05:13 PM 68.6°F20.3°C 41.8°F5.4°C 39% 7.0 mph SSW11.3 kmh SSW 15.0 mph24.1 kmh 30.15 in1021.0 mb 0.00 in0.0 mm 0.00 in0.0 mm 0.00 in0.0 mm
05:18 PM 68.6°F20.3°C 41.8°F5.4°C 39% 8.0 mph SW12.9 kmh SW 15.0 mph24.1 kmh 30.15 in1021.0 mb 0.00 in0.0 mm 0.00 in0.0 mm 0.00 in0.0 mm
05:23 PM 68.6°F20.3°C 42.5°F5.8°C 40% 1.0 mph S1.6 kmh S 13.0 mph20.9 kmh 30.15 in1021.0 mb 0.00 in0.0 mm 0.00 in0.0 mm 0.00 in0.0 mm
05:28 PM 68.5°F20.3°C 41.7°F5.4°C 39% 1.0 mph SSW1.6 kmh SSW 13.0 mph20.9 kmh 30.15 in1021.0 mb 0.00 in0.0 mm 0.00 in0.0 mm 0.00 in0.0 mm
05:33 PM 68.4°F20.2°C 40.9°F4.9°C 38% 1.0 mph S1.6 kmh S 11.0 mph17.7 kmh 30.15 in1021.0 mb 0.00 in0.0 mm 0.00 in0.0 mm 0.00 in0.0 mm
05:38 PM 68.3°F20.2°C 41.5°F5.3°C 39% 7.0 mph S11.3 kmh S 11.0 mph17.7 kmh 30.15 in1021.0 mb 0.00 in0.0 mm 0.00 in0.0 mm 0.00 in0.0 mm
05:43 PM 68.1°F20.1°C 41.4°F5.2°C 39% 4.0 mph S6.4 kmh S 14.0 mph22.5 kmh 30.15 in1021.0 mb 0.00 in0.0 mm 0.00 in0.0 mm 0.00 in0.0 mm
05:48 PM 68.0°F20.0°C 42.0°F5.6°C 40% Calm Calm 14.0 mph22.5 kmh 30.14 in1020.7 mb 0.00 in0.0 mm 0.00 in0.0 mm 0.00 in0.0 mm
05:53 PM 67.9°F19.9°C 41.2°F5.1°C 39% 7.0 mph S11.3 kmh S 14.0 mph22.5 kmh 30.15 in1021.0 mb 0.00 in0.0 mm 0.00 in0.0 mm 0.00 in0.0 mm
05:58 PM 67.7°F19.8°C 41.7°F5.4°C 40% 4.0 mph SSE6.4 kmh SSE 14.0 mph22.5 kmh 30.15 in1021.0 mb 0.00 in0.0 mm 0.00 in0.0 mm 0.00 in0.0 mm
06:03 PM 67.6°F19.8°C 41.6°F5.3°C 40% 4.0 mph S6.4 kmh S 11.0 mph17.7 kmh 30.15 in1021.0 mb 0.00 in0.0 mm 0.00 in0.0 mm 0.00 in0.0 mm
06:08 PM 67.5°F19.7°C 41.5°F5.3°C 40% Calm Calm 11.0 mph17.7 kmh 30.15 in1021.0 mb 0.00 in0.0 mm 0.00 in0.0 mm 0.00 in0.0 mm
06:13 PM 67.2°F19.6°C 41.3°F5.2°C 40% 1.0 mph SSW1.6 kmh SSW 9.0 mph14.5 kmh 30.15 in1021.0 mb 0.00 in0.0 mm 0.00 in0.0 mm 0.00 in0.0 mm
06:18 PM 67.0°F19.4°C 41.1°F5.1°C 40% 1.0 mph S1.6 kmh S 2.0 mph3.2 kmh 30.14 in1020.7 mb 0.00 in0.0 mm 0.00 in0.0 mm 0.00 in0.0 mm
06:23 PM 66.8°F19.3°C 40.9°F4.9°C 40% Calm Calm -- 30.14 in1020.7 mb 0.00 in0.0 mm 0.00 in0.0 mm 0.00 in0.0 mm
06:28 PM 66.4°F19.1°C 41.2°F5.1°C 41% Calm Calm 2.0 mph3.2 kmh 30.15 in1021.0 mb 0.00 in0.0 mm 0.00 in0.0 mm 0.00 in0.0 mm
06:33 PM 66.1°F18.9°C 41.0°F5.0°C 41% 1.0 mph S1.6 kmh S 4.0 mph6.4 kmh 30.15 in1021.0 mb 0.00 in0.0 mm 0.00 in0.0 mm 0.00 in0.0 mm
06:38 PM 65.7°F18.7°C 41.2°F5.1°C 42% Calm Calm 4.0 mph6.4 kmh 30.15 in1021.0 mb 0.00 in0.0 mm 0.00 in0.0 mm 0.00 in0.0 mm
06:43 PM 65.4°F18.6°C 41.0°F5.0°C 42% Calm Calm 2.0 mph3.2 kmh 30.16 in1021.3 mb 0.00 in0.0 mm 0.00 in0.0 mm 0.00 in0.0 mm
06:48 PM 65.0°F18.3°C 41.3°F5.2°C 43% Calm Calm 3.0 mph4.8 kmh 30.16 in1021.3 mb 0.00 in0.0 mm 0.00 in0.0 mm 0.00 in0.0 mm
06:53 PM 64.6°F18.1°C 40.9°F4.9°C 43% 1.0 mph SSW1.6 kmh SSW 4.0 mph6.4 kmh 30.16 in1021.3 mb 0.00 in0.0 mm 0.00 in0.0 mm 0.00 in0.0 mm
06:58 PM 64.3°F17.9°C 41.3°F5.2°C 44% Calm Calm 3.0 mph4.8 kmh 30.15 in1021.0 mb 0.00 in0.0 mm 0.00 in0.0 mm 0.00 in0.0 mm
07:03 PM 63.9°F17.7°C 40.9°F4.9°C 44% Calm Calm -- 30.15 in1021.0 mb 0.00 in0.0 mm 0.00 in0.0 mm 0.00 in0.0 mm
07:08 PM 63.5°F17.5°C 40.5°F4.7°C 44% Calm Calm 4.0 mph6.4 kmh 30.15 in1021.0 mb 0.00 in0.0 mm 0.00 in0.0 mm 0.00 in0.0 mm
07:13 PM 63.2°F17.3°C 40.9°F4.9°C 45% Calm Calm 1.0 mph1.6 kmh 30.15 in1021.0 mb 0.00 in0.0 mm 0.00 in0.0 mm 0.00 in0.0 mm
07:18 PM 63.0°F17.2°C 40.7°F4.8°C 45% Calm Calm -- 30.15 in1021.0 mb 0.00 in0.0 mm 0.00 in0.0 mm 0.00 in0.0 mm
07:23 PM 62.7°F17.1°C 40.4°F4.7°C 45% Calm Calm -- 30.15 in1021.0 mb 0.00 in0.0 mm 0.00 in0.0 mm 0.00 in0.0 mm
07:28 PM 62.4°F16.9°C 40.7°F4.8°C 46% Calm Calm -- 30.15 in1021.0 mb 0.00 in0.0 mm 0.00 in0.0 mm 0.00 in0.0 mm
07:33 PM 62.1°F16.7°C 40.5°F4.7°C 46% Calm Calm -- 30.15 in1021.0 mb 0.00 in0.0 mm 0.00 in0.0 mm 0.00 in0.0 mm
07:38 PM 61.8°F16.6°C 40.8°F4.9°C 47% Calm Calm -- 30.15 in1021.0 mb 0.00 in0.0 mm 0.00 in0.0 mm 0.00 in0.0 mm
07:43 PM 61.4°F16.3°C 40.4°F4.7°C 47% Calm Calm -- 30.15 in1021.0 mb 0.00 in0.0 mm 0.00 in0.0 mm 0.00 in0.0 mm
07:48 PM 61.0°F16.1°C 40.0°F4.4°C 47% Calm Calm -- 30.15 in1021.0 mb 0.00 in0.0 mm 0.00 in0.0 mm 0.00 in0.0 mm
07:53 PM 60.7°F15.9°C 39.8°F4.3°C 47% Calm Calm 3.0 mph4.8 kmh 30.15 in1021.0 mb 0.00 in0.0 mm 0.00 in0.0 mm 0.00 in0.0 mm
07:58 PM 60.4°F15.8°C 40.1°F4.5°C 48% Calm Calm -- 30.15 in1021.0 mb 0.00 in0.0 mm 0.00 in0.0 mm 0.00 in0.0 mm
08:03 PM 60.2°F15.7°C 39.9°F4.4°C 48% Calm Calm -- 30.15 in1021.0 mb 0.00 in0.0 mm 0.00 in0.0 mm 0.00 in0.0 mm
08:08 PM 59.9°F15.5°C 40.2°F4.6°C 49% Calm Calm -- 30.15 in1021.0 mb 0.00 in0.0 mm 0.00 in0.0 mm 0.00 in0.0 mm
08:13 PM 59.6°F15.3°C 39.9°F4.4°C 49% Calm Calm -- 30.15 in1021.0 mb 0.00 in0.0 mm 0.00 in0.0 mm 0.00 in0.0 mm
08:18 PM 59.1°F15.1°C 40.0°F4.4°C 50% Calm Calm -- 30.16 in1021.3 mb 0.00 in0.0 mm 0.00 in0.0 mm 0.00 in0.0 mm
08:23 PM 58.7°F14.8°C 40.1°F4.5°C 51% Calm Calm -- 30.15 in1021.0 mb 0.00 in0.0 mm 0.00 in0.0 mm 0.00 in0.0 mm
08:28 PM 58.3°F14.6°C 40.3°F4.6°C 52% Calm Calm 2.0 mph3.2 kmh 30.16 in1021.3 mb 0.00 in0.0 mm 0.00 in0.0 mm 0.00 in0.0 mm
08:33 PM 57.9°F14.4°C 40.4°F4.7°C 53% Calm Calm 1.0 mph1.6 kmh 30.15 in1021.0 mb 0.00 in0.0 mm 0.00 in0.0 mm 0.00 in0.0 mm
08:38 PM 57.6°F14.2°C 40.7°F4.8°C 54% Calm Calm 2.0 mph3.2 kmh 30.15 in1021.0 mb 0.00 in0.0 mm 0.00 in0.0 mm 0.00 in0.0 mm
08:43 PM 57.5°F14.2°C 40.6°F4.8°C 54% Calm Calm 4.0 mph6.4 kmh 30.15 in1021.0 mb 0.00 in0.0 mm 0.00 in0.0 mm 0.00 in0.0 mm
08:48 PM 57.5°F14.2°C 40.6°F4.8°C 54% 1.0 mph SSW1.6 kmh SSW 6.0 mph9.7 kmh 30.15 in1021.0 mb 0.00 in0.0 mm 0.00 in0.0 mm 0.00 in0.0 mm
08:53 PM 57.6°F14.2°C 40.7°F4.8°C 54% Calm Calm 6.0 mph9.7 kmh 30.15 in1021.0 mb 0.00 in0.0 mm 0.00 in0.0 mm 0.00 in0.0 mm
08:58 PM 57.7°F14.3°C 40.8°F4.9°C 54% 2.0 mph S3.2 kmh S 6.0 mph9.7 kmh 30.15 in1021.0 mb 0.00 in0.0 mm 0.00 in0.0 mm 0.00 in0.0 mm
09:03 PM 57.8°F14.3°C 40.8°F4.9°C 54% 3.0 mph SSW4.8 kmh SSW 6.0 mph9.7 kmh 30.15 in1021.0 mb 0.00 in0.0 mm 0.00 in0.0 mm 0.00 in0.0 mm
09:08 PM 57.7°F14.3°C 40.8°F4.9°C 54% Calm Calm 6.0 mph9.7 kmh 30.14 in1020.7 mb 0.00 in0.0 mm 0.00 in0.0 mm 0.00 in0.0 mm
09:13 PM 57.7°F14.3°C 40.8°F4.9°C 54% 1.0 mph S1.6 kmh S 6.0 mph9.7 kmh 30.14 in1020.7 mb 0.00 in0.0 mm 0.00 in0.0 mm 0.00 in0.0 mm
09:18 PM 57.6°F14.2°C 40.7°F4.8°C 54% Calm Calm 7.0 mph11.3 kmh 30.14 in1020.7 mb 0.00 in0.0 mm 0.00 in0.0 mm 0.00 in0.0 mm
09:23 PM 57.6°F14.2°C 40.7°F4.8°C 54% 2.0 mph SSW3.2 kmh SSW 5.0 mph8.0 kmh 30.14 in1020.7 mb 0.00 in0.0 mm 0.00 in0.0 mm 0.00 in0.0 mm
09:28 PM 57.5°F14.2°C 40.6°F4.8°C 54% 4.0 mph SSW6.4 kmh SSW 4.0 mph6.4 kmh 30.14 in1020.7 mb 0.00 in0.0 mm 0.00 in0.0 mm 0.00 in0.0 mm
09:33 PM 57.4°F14.1°C 40.5°F4.7°C 54% 2.0 mph S3.2 kmh S 5.0 mph8.0 kmh 30.14 in1020.7 mb 0.00 in0.0 mm 0.00 in0.0 mm 0.00 in0.0 mm
09:38 PM 57.3°F14.1°C 40.9°F4.9°C 55% 2.0 mph S3.2 kmh S 5.0 mph8.0 kmh 30.14 in1020.7 mb 0.00 in0.0 mm 0.00 in0.0 mm 0.00 in0.0 mm
09:43 PM 57.1°F13.9°C 40.7°F4.8°C 55% 3.0 mph SSW4.8 kmh SSW 7.0 mph11.3 kmh 30.14 in1020.7 mb 0.00 in0.0 mm 0.00 in0.0 mm 0.00 in0.0 mm
09:48 PM 57.0°F13.9°C 40.6°F4.8°C 55% 4.0 mph SSW6.4 kmh SSW 7.0 mph11.3 kmh 30.14 in1020.7 mb 0.00 in0.0 mm 0.00 in0.0 mm 0.00 in0.0 mm
09:53 PM 56.9°F13.8°C 40.5°F4.7°C 55% 4.0 mph S6.4 kmh S 7.0 mph11.3 kmh 30.14 in1020.7 mb 0.00 in0.0 mm 0.00 in0.0 mm 0.00 in0.0 mm
09:58 PM 56.8°F13.8°C 40.4°F4.7°C 55% 2.0 mph S3.2 kmh S 7.0 mph11.3 kmh 30.14 in1020.7 mb 0.00 in0.0 mm 0.00 in0.0 mm 0.00 in0.0 mm
10:03 PM 56.7°F13.7°C 40.8°F4.9°C 56% 5.0 mph S8.0 kmh S 8.0 mph12.9 kmh 30.14 in1020.7 mb 0.00 in0.0 mm 0.00 in0.0 mm 0.00 in0.0 mm
10:08 PM 56.7°F13.7°C 40.8°F4.9°C 56% 5.0 mph SSW8.0 kmh SSW 8.0 mph12.9 kmh 30.14 in1020.7 mb 0.00 in0.0 mm 0.00 in0.0 mm 0.00 in0.0 mm
10:13 PM 56.6°F13.7°C 41.2°F5.1°C 57% 7.0 mph SSW11.3 kmh SSW 8.0 mph12.9 kmh 30.14 in1020.7 mb 0.00 in0.0 mm 0.00 in0.0 mm 0.00 in0.0 mm
10:18 PM 56.5°F13.6°C 41.1°F5.1°C 57% 8.0 mph S12.9 kmh S 8.0 mph12.9 kmh 30.14 in1020.7 mb 0.00 in0.0 mm 0.00 in0.0 mm 0.00 in0.0 mm
10:23 PM 56.3°F13.5°C 40.9°F4.9°C 57% 5.0 mph S8.0 kmh S 8.0 mph12.9 kmh 30.14 in1020.7 mb 0.00 in0.0 mm 0.00 in0.0 mm 0.00 in0.0 mm
10:28 PM 56.2°F13.4°C 40.8°F4.9°C 57% 5.0 mph S8.0 kmh S 8.0 mph12.9 kmh 30.14 in1020.7 mb 0.00 in0.0 mm 0.00 in0.0 mm 0.00 in0.0 mm
10:33 PM 56.1°F13.4°C 40.7°F4.8°C 57% 6.0 mph S9.7 kmh S 9.0 mph14.5 kmh 30.14 in1020.7 mb 0.00 in0.0 mm 0.00 in0.0 mm 0.00 in0.0 mm
10:38 PM 56.0°F13.3°C 40.6°F4.8°C 57% 3.0 mph S4.8 kmh S 9.0 mph14.5 kmh 30.14 in1020.7 mb 0.00 in0.0 mm 0.00 in0.0 mm 0.00 in0.0 mm
10:43 PM 56.0°F13.3°C 40.6°F4.8°C 57% 2.0 mph S3.2 kmh S 9.0 mph14.5 kmh 30.13 in1020.3 mb 0.00 in0.0 mm 0.00 in0.0 mm 0.00 in0.0 mm
10:48 PM 56.1°F13.4°C 40.7°F4.8°C 57% 7.0 mph SSW11.3 kmh SSW 9.0 mph14.5 kmh 30.13 in1020.3 mb 0.00 in0.0 mm 0.00 in0.0 mm 0.00 in0.0 mm
10:53 PM 56.1°F13.4°C 40.2°F4.6°C 56% 8.0 mph S12.9 kmh S 9.0 mph14.5 kmh 30.13 in1020.3 mb 0.00 in0.0 mm 0.00 in0.0 mm 0.00 in0.0 mm
10:58 PM 56.2°F13.4°C 40.3°F4.6°C 56% 7.0 mph S11.3 kmh S 9.0 mph14.5 kmh 30.13 in1020.3 mb 0.00 in0.0 mm 0.00 in0.0 mm 0.00 in0.0 mm
11:03 PM 56.2°F13.4°C 40.3°F4.6°C 56% 6.0 mph S9.7 kmh S 9.0 mph14.5 kmh 30.13 in1020.3 mb 0.00 in0.0 mm 0.00 in0.0 mm 0.00 in0.0 mm
11:08 PM 56.2°F13.4°C 40.3°F4.6°C 56% 7.0 mph S11.3 kmh S 10.0 mph16.1 kmh 30.13 in1020.3 mb 0.00 in0.0 mm 0.00 in0.0 mm 0.00 in0.0 mm
11:13 PM 56.2°F13.4°C 40.8°F4.9°C 57% 6.0 mph SSW9.7 kmh SSW 10.0 mph16.1 kmh 30.14 in1020.7 mb 0.00 in0.0 mm 0.00 in0.0 mm 0.00 in0.0 mm
11:18 PM 56.1°F13.4°C 40.7°F4.8°C 57% 5.0 mph SSW8.0 kmh SSW 10.0 mph16.1 kmh 30.14 in1020.7 mb 0.00 in0.0 mm 0.00 in0.0 mm 0.00 in0.0 mm
11:23 PM 56.0°F13.3°C 40.6°F4.8°C 57% 4.0 mph S6.4 kmh S 10.0 mph16.1 kmh 30.14 in1020.7 mb 0.00 in0.0 mm 0.00 in0.0 mm 0.00 in0.0 mm
11:28 PM 55.8°F13.2°C 40.9°F4.9°C 58% 5.0 mph SSW8.0 kmh SSW 8.0 mph12.9 kmh 30.14 in1020.7 mb 0.00 in0.0 mm 0.00 in0.0 mm 0.00 in0.0 mm
11:33 PM 55.6°F13.1°C 40.7°F4.8°C 58% 5.0 mph S8.0 kmh S 8.0 mph12.9 kmh 30.14 in1020.7 mb 0.00 in0.0 mm 0.00 in0.0 mm 0.00 in0.0 mm
11:38 PM 55.5°F13.1°C 40.6°F4.8°C 58% 4.0 mph SSW6.4 kmh SSW 8.0 mph12.9 kmh 30.13 in1020.3 mb 0.00 in0.0 mm 0.00 in0.0 mm 0.00 in0.0 mm
11:43 PM 55.3°F12.9°C 40.4°F4.7°C 58% 6.0 mph S9.7 kmh S 8.0 mph12.9 kmh 30.13 in1020.3 mb 0.00 in0.0 mm 0.00 in0.0 mm 0.00 in0.0 mm
11:48 PM 55.2°F12.9°C 40.8°F4.9°C 59% 5.0 mph S8.0 kmh S 7.0 mph11.3 kmh 30.13 in1020.3 mb 0.00 in0.0 mm 0.00 in0.0 mm 0.00 in0.0 mm
11:53 PM 55.1°F12.8°C 40.7°F4.8°C 59% 3.0 mph S4.8 kmh S 7.0 mph11.3 kmh 30.13 in1020.3 mb 0.00 in0.0 mm 0.00 in0.0 mm 0.00 in0.0 mm
11:58 PM 55.0°F12.8°C 40.6°F4.8°C 59% 4.0 mph SSW6.4 kmh SSW 8.0 mph12.9 kmh 30.13 in1020.3 mb 0.00 in0.0 mm 0.00 in0.0 mm 0.00 in0.0 mm